Tiempo atmosférico en la estación meteorológica de Barbastro, Huesca (305 m.)



Fecha
DESCASC
Temp. máxima en grados centígrados (hora)
DESCASC
Temp. mínima en grados centígrados (hora)
DESCASC
Temp. media en grados centígrados
DESCASC
Racha de viento máxima en m/sg (hora)
DESCASC
Velocidad máxima media en intervalos de 10 minutos(hora)
DESCASC
Precipitaciones diarias en mm
DESCASC
Precipitaciones de 00:00 a 06:00 en mm
DESCASC
Precipitaciones de 06:00 a 12:00 en mm
DESCASC
Precipitaciones de 12:00 a 18:00 en mm
DESCASC
Precipitaciones de 18:00 a 24:00 en mm
DESCASC
23-05-2018 27.2 (16:30) 10.9 (06:40) 19.1 10 (20:30) 4.17 (21:10) 15 0 0 0 15
22-05-2018 -- (--) -- (--) -- -- (--) -- (--) -- 0 -- 0 0
21-05-2018 25.5 (17:10) 12.8 (06:50) 19.2 10.83 (20:40) 5.83 (20:30) 0.4 0 0.2 0 0.2
20-05-2018 24 (16:30) 11.7 (00:00) 17.8 7.22 (18:30) 3.61 (13:50) 6.6 0 0 0 6.6
19-05-2018 26 (15:20) 13.9 (00:00) 19.9 13.61 (17:20) 6.39 (17:20) 36.4 0 0 27 9.4
18-05-2018 24.1 (17:50) 11.1 (00:00) 17.6 5.83 (20:40) 2.78 (13:50) 0 0 0 0 0
17-05-2018 26.2 (17:00) 11.2 (00:00) 18.7 8.61 (19:10) 4.72 (19:20) 13.8 0 0 0 13.8
16-05-2018 26.2 (17:50) 8.2 (00:00) 17.2 8.33 (16:40) 3.06 (16:40) 0 0 0 0 0
15-05-2018 24.9 (16:50) 4 (00:00) 14.4 6.39 (20:00) 3.33 (17:40) 0 0 0 0 0
14-05-2018 21.1 (17:50) 3.2 (00:00) 12.2 10 (21:00) 4.72 (21:00) 0 0 0 0 0
13-05-2018 19.2 (16:00) 5.2 (00:00) 12.2 16.11 (15:00) 6.94 (13:50) 0 0 0 0 0
12-05-2018 24.6 (14:20) 11.8 (00:00) 18.2 8.06 (17:30) 4.17 (15:40) 1.8 0.4 0.2 0.6 0.6
11-05-2018 26.7 (18:10) 5.8 (07:00) 16.3 6.11 (17:20) 2.5 (15:10) 0 0 0 0 0
10-05-2018 24.1 (18:20) 10.9 (00:00) 17.5 7.5 (20:00) 3.61 (19:40) 0 0 0 0 0
09-05-2018 25.5 (17:10) 10.5 (00:00) 18 7.22 (15:40) 3.61 (21:00) 0 0 0 0 0
08-05-2018 26.3 (16:20) 13.8 (00:00) 20 7.78 (01:30) 3.61 (01:10) 0.2 0.2 0 0 0
07-05-2018 25.8 (15:10) 13.9 (00:00) 19.8 8.33 (22:20) 4.17 (22:50) 1.8 0 0 1.2 0.6
06-05-2018 24.8 (14:50) 10 (00:00) 17.4 6.39 (12:10) 2.78 (12:10) 0 0 0 0 0
05-05-2018 21.5 (14:10) 6 (00:00) 13.8 6.39 (14:50) 2.78 (13:50) 0.2 0 0 0.2 0
04-05-2018 24 (15:20) 3.9 (00:00) 14 8.33 (16:50) 4.72 (16:50) 0 0 0 0 0
03-05-2018 23.3 (15:20) 5.7 (00:00) 14.5 9.72 (15:00) 5.28 (17:10) 0 0 0 0 0
02-05-2018 20.2 (16:00) 2.1 (00:00) 11.2 11.94 (15:50) 5.28 (14:40) 0 0 0 0 0
01-05-2018 16.9 (14:40) 1.6 (07:20) 9.2 9.72 (17:30) 4.17 (17:10) 0 0 0 0 0
30-04-2018 17.5 (17:30) 3.5 (00:00) 10.5 7.5 (13:20) 3.61 (14:00) 1.2 1.2 0 0 0
29-04-2018 15.5 (00:00) 8 (00:00) 11.8 10 (15:10) 5.83 (15:10) 17.8 15.6 0.4 1.8 0
28-04-2018 23 (17:00) 13.4 (00:00) 18.2 11.11 (19:30) 4.44 (18:40) 0 0 0 0 0
27-04-2018 27.1 (17:30) 8.8 (00:00) 18 7.78 (21:40) 3.61 (19:20) 3.2 0 0 0 3.2
26-04-2018 24.6 (17:40) 9.4 (00:00) 17 6.67 (14:40) 3.06 (16:00) 0 0 0 0 0
25-04-2018 28.7 (17:40) 10.3 (00:00) 19.5 8.33 (20:20) 3.33 (11:20) 0 0 0 0 0
24-04-2018 26.9 (17:10) 9.6 (00:00) 18.3 5.83 (15:30) 2.78 (15:30) 0 0 0 0 0

Gráficas

Temp. máximas Temp. mínimas Temp. medias Precipitaciones Rachas de viento máximas Velocidades máximas media en intervalos de 10 minutos

Datos horarios

Fecha y hora oficial Temperatura (ºC) Velocidad del viento (km/h) Dirección del viento Racha (km/h) Dirección de racha Precipitación (mm) Presión (hPa) Tendencia (hPa) Humedad (%)
2018-05-23 23:00:00 16.7 4 Noroeste 23 Noroeste 1.4 -- -- 93
2018-05-23 22:00:00 16.7 8 Este 32 Oeste 9 -- -- 90
2018-05-23 21:00:00 18.1 13 Oeste 36 Oeste 4.6 -- -- 84
2018-05-23 20:00:00 23.4 0 Calma 10 Nordeste 0 -- -- 55
2018-05-23 19:00:00 25.2 4 Nordeste 14 Nordeste 0 -- -- 47
2018-05-23 18:00:00 27.1 5 Sudeste 13 Sudeste 0 -- -- 38
2018-05-23 17:00:00 26.8 3 Sur 14 Sur 0 -- -- 40
2018-05-23 16:00:00 26.7 4 Sudeste 19 Sur 0 -- -- 39
2018-05-23 15:00:00 26.1 6 Sur 18 Sur 0 -- -- 44
2018-05-23 14:00:00 25.1 4 Sudeste 17 Este 0 -- -- 49
2018-05-23 13:00:00 23.8 5 Sur 14 Sur 0 -- -- 52
2018-05-23 12:00:00 23.4 3 Este 12 Este 0 -- -- 51
2018-05-23 11:00:00 22.4 2 Sur 9 Noroeste 0 -- -- 53
2018-05-23 10:00:00 20.7 6 Norte 14 Norte 0 -- -- 59
2018-05-23 09:00:00 18.6 2 Norte 8 Noroeste 0 -- -- 69
2018-05-23 08:00:00 14.1 0 Calma 6 Noroeste 0 -- -- 87
2018-05-23 07:00:00 10.9 0 Calma 5 Oeste 0 -- -- 94
2018-05-23 06:00:00 11.2 0 Calma 2 Norte 0 -- -- 92
2018-05-23 05:00:00 11.5 0 Calma -- -- 0 -- -- 92
2018-05-23 04:00:00 11.8 0 Calma 4 Noroeste 0 -- -- 92
2018-05-23 03:00:00 12 0 Calma 4 Sudeste 0 -- -- 90
2018-05-23 02:00:00 12.6 0 Calma 5 Noroeste 0 -- -- 88
2018-05-23 01:00:00 13.1 0 Calma 5 Oeste 0 -- -- 86
2018-05-23 00:00:00 14.1 0 Calma 3 Sudoeste 0 -- -- 81
2018-05-22 23:00:00 16 0 Calma 12 Noroeste 0 -- -- 74
2018-05-22 22:00:00 17.9 6 Norte 17 Noroeste 0 -- -- 63
2018-05-22 21:00:00 18.8 8 Noroeste 17 Norte 0 -- -- 62
2018-05-22 20:00:00 21.1 7 Norte 16 Nordeste 0 -- -- 56
2018-05-22 19:00:00 21.2 12 Nordeste 31 Norte 0 -- -- 51
2018-05-22 18:00:00 26 4 Sudeste 20 Sur 0 -- -- 35
2018-05-22 17:00:00 24.4 8 Sudeste 18 Este 0 -- -- 46
2018-05-22 16:00:00 24.9 6 Sur 19 Sur 0 -- -- 50
2018-05-22 15:00:00 23.9 5 Sudeste 17 Sudoeste 0 -- -- 52
2018-05-22 14:00:00 23 6 Sur 21 Sur 0 -- -- 54
2018-05-22 13:00:00 22.1 4 Sur 14 Sudeste 0 -- -- 56
2018-05-22 12:00:00 21.3 4 Sudeste 14 Este 0 -- -- 59
2018-05-22 11:00:00 20.3 4 Este 10 Sur 0 -- -- 61
2018-05-22 10:00:00 19 0 Calma 9 Nordeste 0 -- -- 65
2018-05-22 09:00:00 -- -- -- -- -- -- -- -- --
2018-05-22 08:00:00 12.7 0 Calma 7 Noroeste 0 -- -- 90
2018-05-22 07:00:00 10.3 0 Calma 6 Noroeste 0 -- -- 94
2018-05-22 06:00:00 10.5 0 Calma 4 Oeste 0 -- -- 94
2018-05-22 05:00:00 11.2 0 Calma 4 Noroeste 0 -- -- 93
2018-05-22 04:00:00 11.9 0 Calma 4 Noroeste 0 -- -- 92
2018-05-22 03:00:00 12.8 0 Calma 0 Calma 0 -- -- 89
2018-05-22 02:00:00 14.1 0 Calma 9 Noroeste 0 -- -- 85
2018-05-22 01:00:00 15.4 4 Noroeste 14 Norte 0 -- -- 80
2018-05-22 00:00:00 15.6 9 Noroeste 22 Noroeste 0.2 -- -- 78
2018-05-21 23:00:00 15.9 8 Norte 21 Nordeste 0 -- -- 80
2018-05-21 22:00:00 16.3 8 Nordeste 26 Norte 0 -- -- 76
2018-05-21 21:00:00 17.7 19 Noroeste 39 Noroeste 0 -- -- 63
2018-05-21 20:00:00 20.7 12 Oeste 34 Sudoeste 0 -- -- 55
2018-05-21 19:00:00 24.9 4 Sudeste 17 Sur 0 -- -- 40
2018-05-21 18:00:00 25.3 8 Sur 19 Sudoeste 0 -- -- 39
2018-05-21 17:00:00 25.4 8 Sur 14 Sur 0 -- -- 42
2018-05-21 16:00:00 25.1 5 Sudoeste 14 Sur 0 -- -- 41
2018-05-21 15:00:00 23.9 4 Sudeste 13 Este 0 -- -- 41
2018-05-21 14:00:00 23.2 3 Este 17 Nordeste 0 -- -- 50
2018-05-21 13:00:00 22.4 5 Sudeste 16 Sudeste 0 -- -- 56
2018-05-21 12:00:00 21.9 4 Este 11 Este 0 -- -- 58
2018-05-21 11:00:00 20.6 5 Este 9 Sur 0.2 -- -- 61
2018-05-21 10:00:00 19.2 4 Sudeste 9 Sudeste 0 -- -- 72
2018-05-21 09:00:00 17.8 0 Calma 4 Noroeste 0 -- -- 80
2018-05-21 08:00:00 14.2 0 Calma -- -- 0 -- -- 100
2018-05-21 07:00:00 12.9 0 Calma 2 Norte 0 -- -- 99
2018-05-21 06:00:00 13.1 0 Calma 4 Norte 0 -- -- 98
2018-05-21 05:00:00 13.3 0 Calma 6 Norte 0 -- -- 98
2018-05-21 04:00:00 13.4 0 Calma -- -- 0 -- -- 98
2018-05-21 03:00:00 13.4 0 Calma 3 Noroeste 0 -- -- 98
2018-05-21 02:00:00 13.4 0 Calma -- -- 0 -- -- 98
2018-05-21 01:00:00 13.3 0 Calma 3 Sudoeste 0 -- -- 97
2018-05-21 00:00:00 13.5 0 Calma 4 Noroeste 0 -- -- 96
2018-05-20 23:00:00 13.9 0 Calma 4 Norte 0 -- -- 94
2018-05-20 22:00:00 14.6 0 Calma 4 Sudoeste 0 -- -- 93
2018-05-20 21:00:00 15.6 0 Calma 8 Oeste 0 -- -- 91
2018-05-20 20:00:00 15.7 0 Calma 11 Este 2 -- -- 90
2018-05-20 19:00:00 15.7 3 Este 26 Sudeste 4.6 -- -- 86
2018-05-20 18:00:00 20.6 0 Calma 14 Oeste 0 -- -- 60
2018-05-20 17:00:00 22 8 Noroeste 23 Noroeste 0 -- -- 56
2018-05-20 16:00:00 23.2 8 Este 23 Este 0 -- -- 56
2018-05-20 15:00:00 23.1 6 Sur 14 Sudeste 0 -- -- 53
2018-05-20 14:00:00 22.2 8 Sudeste 21 Sur 0 -- -- 53
2018-05-20 13:00:00 21.4 8 Sur 17 Sudeste 0 -- -- 63
2018-05-20 12:00:00 20.2 5 Sudeste 13 Este 0 -- -- 65
2018-05-20 11:00:00 19.4 3 Sudeste 12 Nordeste 0 -- -- 67
2018-05-20 10:00:00 17.7 5 Nordeste 14 Noroeste 0 -- -- 71
2018-05-20 09:00:00 17 0 Calma 9 Noroeste 0 -- -- 76
2018-05-20 08:00:00 13.9 0 Calma 4 Oeste 0 -- -- 95
2018-05-20 07:00:00 12.2 0 Calma 4 Oeste 0 -- -- 98
2018-05-20 06:00:00 12.5 0 Calma 6 Noroeste 0 -- -- 99
2018-05-20 05:00:00 12.2 0 Calma 6 Oeste 0 -- -- 99
2018-05-20 04:00:00 11.8 0 Calma 4 Oeste 0 -- -- 98
2018-05-20 03:00:00 12.5 0 Calma 4 Noroeste 0 -- -- 95
2018-05-20 02:00:00 13.4 0 Calma 8 Noroeste 0 -- -- 95
2018-05-20 01:00:00 13.6 2 Noroeste 8 Noroeste 0 -- -- 96
2018-05-20 00:00:00 13.9 0 Calma 4 Oeste 0 -- -- 96
2018-05-19 23:00:00 14.1 0 Calma 4 Noroeste 0 -- -- 96
2018-05-19 22:00:00 14.5 0 Calma 10 Noroeste 0 -- -- 93
2018-05-19 21:00:00 15.5 0 Calma 18 Norte 0.2 -- -- 85
2018-05-19 20:00:00 15.2 6 Este 15 Este 0.2 -- -- 91
2018-05-19 19:00:00 15.1 3 Sudoeste 23 Noroeste 9 -- -- 88
2018-05-19 18:00:00 15.9 5 Sudeste 49 Noroeste 27 -- -- 85
2018-05-19 17:00:00 24.5 7 Oeste 19 Noroeste 0 -- -- 48
2018-05-19 16:00:00 25.8 7 Oeste 19 Sur 0 -- -- 42
2018-05-19 15:00:00 24.9 5 Sudoeste 23 Sur 0 -- -- 45
2018-05-19 14:00:00 23.7 7 Sur 22 Sur 0 -- -- 46
2018-05-19 13:00:00 23.9 8 Sur 17 Sur 0 -- -- 49
2018-05-19 12:00:00 22.6 2 Sur 14 Sudeste 0 -- -- 52
2018-05-19 11:00:00 22.1 5 Este 10 Este 0 -- -- 52
2018-05-19 10:00:00 20.9 4 Norte 14 Norte 0 -- -- 55
2018-05-19 09:00:00 19.4 3 Norte 12 Norte 0 -- -- 64
2018-05-19 08:00:00 16.3 3 Noroeste 10 Oeste 0 -- -- 77
2018-05-19 07:00:00 14.4 6 Noroeste 11 Noroeste 0 -- -- 83
2018-05-19 06:00:00 14.7 0 Calma 11 Noroeste 0 -- -- 85
2018-05-19 05:00:00 14.4 0 Calma 5 Noroeste 0 -- -- 88
2018-05-19 04:00:00 14.2 3 Oeste 7 Oeste 0 -- -- 88
2018-05-19 03:00:00 14.3 0 Calma 3 Noroeste 0 -- -- 87
2018-05-19 02:00:00 14.3 3 Oeste 6 Oeste 0 -- -- 86
2018-05-19 01:00:00 14.1 0 Calma 8 Oeste 0 -- -- 85
2018-05-19 00:00:00 14.7 0 Calma 5 Noroeste 0 -- -- 82
2018-05-18 23:00:00 15.8 0 Calma 13 Noroeste 0 -- -- 77
2018-05-18 22:00:00 17.4 4 Noroeste 14 Norte 0 -- -- 66
2018-05-18 21:00:00 18.8 6 Norte 21 Norte 0 -- -- 60
2018-05-18 20:00:00 21 10 Norte 20 Norte 0 -- -- 53
2018-05-18 19:00:00 22.9 0 Calma 14 Este 0 -- -- 50
2018-05-18 18:00:00 24 3 Sudeste 14 Sudeste 0 -- -- 46
2018-05-18 17:00:00 22.3 3 Este 13 Sudoeste 0 -- -- 55
2018-05-18 16:00:00 22.7 3 Sudoeste 18 Sudeste 0 -- -- 49
2018-05-18 15:00:00 22.6 6 Sur 18 Sudeste 0 -- -- 51
2018-05-18 14:00:00 22.5 8 Sur 19 Sur 0 -- -- 53
2018-05-18 13:00:00 21.5 6 Este 15 Este 0 -- -- 58
2018-05-18 12:00:00 20.6 4 Este 12 Este 0 -- -- 60
2018-05-18 11:00:00 19.3 0 Calma 9 Sudoeste 0 -- -- 65
2018-05-18 10:00:00 17.9 0 Calma 8 Noroeste 0 -- -- 74
2018-05-18 09:00:00 16.3 3 Noroeste 9 Norte 0 -- -- 81
2018-05-18 08:00:00 13.3 0 Calma 5 Norte 0 -- -- 98
2018-05-18 07:00:00 11.2 0 Calma 4 Norte 0 -- -- 97
2018-05-18 06:00:00 12 0 Calma 4 Norte 0 -- -- 96
2018-05-18 05:00:00 12.9 3 Noroeste 6 Norte 0 -- -- 97
2018-05-18 04:00:00 13.6 0 Calma 3 Oeste 0 -- -- 96
2018-05-18 03:00:00 14 0 Calma -- -- 0 -- -- 96
2018-05-18 02:00:00 14.5 0 Calma 4 Sur 0 -- -- 97
2018-05-18 01:00:00 14.6 0 Calma 4 Oeste 0 -- -- 96
2018-05-18 00:00:00 14.6 0 Calma 6 Sudoeste 0 -- -- 95
2018-05-17 23:00:00 15 0 Calma 15 Norte 0.4 -- -- 93
2018-05-17 22:00:00 15.2 3 Norte 13 Este 1.6 -- -- 89
2018-05-17 21:00:00 16.1 7 Este 19 Este 0.6 -- -- 79
2018-05-17 20:00:00 16.1 10 Este 31 Nordeste 11.2 -- -- 76
2018-05-17 19:00:00 25.2 2 Sur 15 Sudoeste 0 -- -- 42
2018-05-17 18:00:00 26 8 Sudoeste 19 Sur 0 -- -- 41
2018-05-17 17:00:00 26.2 6 Sudoeste 21 Sur 0 -- -- 43
2018-05-17 16:00:00 24.7 5 Sudeste 17 Sur 0 -- -- 44
2018-05-17 15:00:00 24.1 6 Sur 18 Sur 0 -- -- 45
2018-05-17 14:00:00 23.1 9 Sur 21 Sur 0 -- -- 50
2018-05-17 13:00:00 21.7 8 Sudeste 18 Este 0 -- -- 54
2018-05-17 12:00:00 21 8 Sudeste 18 Sur 0 -- -- 57
2018-05-17 11:00:00 20.7 4 Este 13 Nordeste 0 -- -- 58
2018-05-17 10:00:00 18.9 4 Sudeste 9 Este 0 -- -- 61
2018-05-17 09:00:00 17.2 0 Calma 5 Noroeste 0 -- -- 69
2018-05-17 08:00:00 13.2 0 Calma 5 Noroeste 0 -- -- 86
2018-05-17 07:00:00 11.2 0 Calma 2 Norte 0 -- -- 89
2018-05-17 06:00:00 11.8 0 Calma 5 Noroeste 0 -- -- 86
2018-05-17 05:00:00 12.4 0 Calma -- -- 0 -- -- 84
2018-05-17 04:00:00 13.7 0 Calma -- -- 0 -- -- 82
2018-05-17 03:00:00 14.6 0 Calma 0 Calma 0 -- -- 79
2018-05-17 02:00:00 15.3 0 Calma 4 Sudoeste 0 -- -- 76
2018-05-17 01:00:00 16.7 2 Oeste 8 Oeste 0 -- -- 68
2018-05-17 00:00:00 17 0 Calma 5 Nordeste 0 -- -- 70
2018-05-16 23:00:00 17.8 0 Calma 5 Este 0 -- -- 65
2018-05-16 22:00:00 19.1 0 Calma 10 Oeste 0 -- -- 59
2018-05-16 21:00:00 21.9 8 Sudoeste 15 Oeste 0 -- -- 47
2018-05-16 20:00:00 24.2 5 Oeste 15 Sudoeste 0 -- -- 37
2018-05-16 19:00:00 25.9 8 Sudoeste 18 Sudoeste 0 -- -- 35
2018-05-16 18:00:00 25.9 5 Sudoeste 23 Sudoeste 0 -- -- 36
2018-05-16 17:00:00 25.6 5 Sur 30 Sur 0 -- -- 36
2018-05-16 16:00:00 24.8 9 Sudoeste 20 Sur 0 -- -- 37
2018-05-16 15:00:00 23.9 9 Sur 22 Sudoeste 0 -- -- 42
2018-05-16 14:00:00 22.7 6 Sur 19 Sur 0 -- -- 44
2018-05-16 13:00:00 20.6 5 Sudeste 13 Sudoeste 0 -- -- 53
2018-05-16 12:00:00 18.4 8 Sur 17 Sur 0 -- -- 59
2018-05-16 11:00:00 17 6 Sudeste 14 Sur 0 -- -- 61
2018-05-16 10:00:00 15.6 4 Sudeste 11 Este 0 -- -- 63
2018-05-16 09:00:00 13.4 0 Calma 6 Este 0 -- -- 71
2018-05-16 08:00:00 9.6 0 Calma -- -- 0 -- -- 89
2018-05-16 07:00:00 8.2 0 Calma 4 Este 0 -- -- 90
2018-05-16 06:00:00 9.1 0 Calma 5 Este 0 -- -- 86
2018-05-16 05:00:00 10.5 0 Calma 6 Sudeste 0 -- -- 83
2018-05-16 04:00:00 11.5 2 Sudeste 9 Sur 0 -- -- 83
2018-05-16 03:00:00 11.6 4 Sudeste 9 Sudeste 0 -- -- 82
2018-05-16 02:00:00 11.7 4 Este 9 Sudeste 0 -- -- 82
2018-05-16 01:00:00 12.3 0 Calma 5 Noroeste 0 -- -- 78
2018-05-16 00:00:00 13.6 0 Calma 6 Norte 0 -- -- 73
2018-05-15 23:00:00 15.2 0 Calma 14 Sudoeste 0 -- -- 67
2018-05-15 22:00:00 17.7 6 Noroeste 21 Sudoeste 0 -- -- 57
2018-05-15 21:00:00 20.9 4 Oeste 17 Noroeste 0 -- -- 47
2018-05-15 20:00:00 22.5 10 Norte 23 Norte 0 -- -- 38
2018-05-15 19:00:00 23.2 7 Sudoeste 21 Sudoeste 0 -- -- 40
2018-05-15 18:00:00 24.4 8 Sur 23 Sudeste 0 -- -- 37
2018-05-15 17:00:00 23.9 10 Sudoeste 21 Sudoeste 0 -- -- 38
2018-05-15 16:00:00 23.5 9 Sur 18 Sudeste 0 -- -- 38
2018-05-15 15:00:00 23.2 7 Sur 18 Sur 0 -- -- 39
2018-05-15 14:00:00 21.5 6 Sudoeste 21 Sur 0 -- -- 41
2018-05-15 13:00:00 19.7 9 Sur 19 Oeste 0 -- -- 45
2018-05-15 12:00:00 18 4 Noroeste 15 Sur 0 -- -- 51
2018-05-15 11:00:00 15.5 7 Este 13 Sudeste 0 -- -- 55
2018-05-15 10:00:00 13.8 2 Norte 6 Norte 0 -- -- 57
2018-05-15 09:00:00 10.8 0 Calma 4 Norte 0 -- -- 67
2018-05-15 08:00:00 6.4 0 Calma 6 Norte 0 -- -- 87
2018-05-15 07:00:00 4.1 0 Calma 4 Sur 0 -- -- 89
2018-05-15 06:00:00 4.8 0 Calma 4 Nordeste 0 -- -- 87
2018-05-15 05:00:00 5.9 0 Calma 8 Sudeste 0 -- -- 82
2018-05-15 04:00:00 6.9 0 Calma 10 Sur 0 -- -- 78
2018-05-15 03:00:00 7.3 2 Sur 6 Oeste 0 -- -- 78
2018-05-15 02:00:00 8.4 0 Calma 4 Noroeste 0 -- -- 73
2018-05-15 01:00:00 9.1 0 Calma 4 Noroeste 0 -- -- 70
2018-05-15 00:00:00 10.7 0 Calma 7 Noroeste 0 -- -- 64
2018-05-14 23:00:00 12.5 0 Calma 5 Este 0 -- -- 57
2018-05-14 22:00:00 15.6 4 Noroeste 30 Noroeste 0 -- -- 42
2018-05-14 21:00:00 18.1 17 Noroeste 36 Noroeste 0 -- -- 40
2018-05-14 20:00:00 19 12 Oeste 31 Sudoeste 0 -- -- 37
2018-05-14 19:00:00 19.7 12 Sudoeste 33 Oeste 0 -- -- 38
2018-05-14 18:00:00 21 8 Oeste 25 Sur 0 -- -- 33
2018-05-14 17:00:00 20.5 12 Sudoeste 30 Sudoeste 0 -- -- 34
2018-05-14 16:00:00 20.3 10 Oeste 28 Sudoeste 0 -- -- 33
2018-05-14 15:00:00 19.2 11 Oeste 26 Sudoeste 0 -- -- 35
2018-05-14 14:00:00 17.9 8 Oeste 25 Sudoeste 0 -- -- 34
2018-05-14 13:00:00 17.2 9 Oeste 30 Sudoeste 0 -- -- 34
2018-05-14 12:00:00 15.7 14 Oeste 31 Oeste 0 -- -- 41
2018-05-14 11:00:00 16 12 Oeste 28 Oeste 0 -- -- 42
2018-05-14 10:00:00 14.1 10 Oeste 26 Noroeste 0 -- -- 49
2018-05-14 09:00:00 12.8 9 Oeste 17 Oeste 0 -- -- 51
2018-05-14 08:00:00 8.1 7 Noroeste 17 Oeste 0 -- -- 74
2018-05-14 07:00:00 3.3 0 Calma 3 Sudeste 0 -- -- 89
2018-05-14 06:00:00 3.8 0 Calma 8 Sudeste 0 -- -- 84
2018-05-14 05:00:00 4.8 0 Calma 8 Oeste 0 -- -- 79
2018-05-14 04:00:00 5.8 0 Calma 11 Noroeste 0 -- -- 75
2018-05-14 03:00:00 7.3 3 Oeste 14 Oeste 0 -- -- 67
2018-05-14 02:00:00 8.5 6 Oeste 14 Oeste 0 -- -- 60
2018-05-14 01:00:00 9.6 6 Oeste 22 Noroeste 0 -- -- 55
2018-05-11 20:00:00 23.4 0 Calma 7 Nordeste 0 -- -- 53
2018-05-11 19:00:00 25.2 2 Sur 14 Oeste 0 -- -- 42
2018-05-11 18:00:00 26.3 4 Sur 22 Sur 0 -- -- 37
2018-05-11 17:00:00 25.7 5 Sudoeste 16 Sur 0 -- -- 41
2018-05-11 16:00:00 24.7 8 Sur 17 Sudoeste 0 -- -- 40
2018-05-11 15:00:00 23.6 6 Sur 16 Este 0 -- -- 43
2018-05-11 14:00:00 22.6 7 Sur 18 Sudoeste 0 -- -- 43
2018-05-11 13:00:00 21.1 6 Sur 17 Sur 0 -- -- 45
2018-05-11 12:00:00 19.6 8 Sur 15 Sudoeste 0 -- -- 46
2018-05-11 11:00:00 18 5 Este 14 Sudeste 0 -- -- 55
2018-05-11 10:00:00 16.1 7 Sudeste 11 Este 0 -- -- 63
2018-05-11 09:00:00 13.4 0 Calma 6 Noroeste 0 -- -- 77
2018-05-11 08:00:00 7.7 0 Calma 3 Norte 0 -- -- 96
2018-05-11 07:00:00 5.8 0 Calma -- -- 0 -- -- 94
2018-05-11 06:00:00 6.3 0 Calma 3 Oeste 0 -- -- 91
2018-05-11 05:00:00 6.9 0 Calma 4 Oeste 0 -- -- 91
2018-05-11 04:00:00 7.6 0 Calma 2 Sur 0 -- -- 89
2018-05-11 03:00:00 8.5 0 Calma 4 Noroeste 0 -- -- 89
2018-05-11 02:00:00 9.6 0 Calma 2 Sudoeste 0 -- -- 86
2018-05-11 01:00:00 10.7 0 Calma 5 Nordeste 0 -- -- 84
2018-05-11 00:00:00 12.2 0 Calma 9 Oeste 0 -- -- 77
2018-05-10 23:00:00 14 3 Norte 13 Oeste 0 -- -- 70
2018-05-10 22:00:00 16.1 2 Sur 17 Noroeste 0 -- -- 64
2018-05-10 21:00:00 18.4 10 Noroeste 24 Sudoeste 0 -- -- 54
2018-05-10 20:00:00 20.9 12 Oeste 27 Sudoeste 0 -- -- 48
2018-05-10 19:00:00 23.8 8 Sudoeste 22 Sudeste 0 -- -- 40
2018-05-10 18:00:00 23.9 6 Sudeste 23 Sur 0 -- -- 40
2018-05-10 17:00:00 23.4 7 Sur 20 Sudoeste 0 -- -- 43
2018-05-10 16:00:00 22.8 10 Sur 19 Sudoeste 0 -- -- 42
2018-05-10 15:00:00 21.5 8 Sur 21 Sudeste 0 -- -- 48
2018-05-10 14:00:00 20.1 9 Sur 18 Sur 0 -- -- 53
2018-05-10 13:00:00 18.6 8 Este 15 Sudeste 0 -- -- 58
2018-05-10 12:00:00 17.3 6 Sudeste 14 Sudeste 0 -- -- 59
2018-05-10 11:00:00 16.5 4 Sur 12 Sur 0 -- -- 62
2018-05-10 10:00:00 15.9 6 Sudeste 12 Este 0 -- -- 63
2018-05-10 09:00:00 13.8 5 Sudeste 13 Sur 0 -- -- 75
2018-05-10 08:00:00 12.1 0 Calma 9 Sur 0 -- -- 90
2018-05-10 07:00:00 11.2 0 Calma 5 Sur 0 -- -- 93
2018-05-10 06:00:00 11 0 Calma 4 Sudeste 0 -- -- 92
2018-05-10 05:00:00 11.1 0 Calma 6 Norte 0 -- -- 92
2018-05-10 04:00:00 11.4 0 Calma 2 Sudeste 0 -- -- 89
2018-05-10 03:00:00 11.6 0 Calma 5 Nordeste 0 -- -- 88
2018-05-10 02:00:00 12.3 2 Norte 5 Norte 0 -- -- 84
2018-05-10 01:00:00 13.7 2 Nordeste 7 Sur 0 -- -- 78
2018-05-10 00:00:00 15.3 3 Sur 10 Nordeste 0 -- -- 71
2018-05-09 23:00:00 16.6 4 Nordeste 18 Oeste 0 -- -- 68
2018-05-09 22:00:00 18.7 6 Oeste 21 Oeste 0 -- -- 60
2018-05-09 21:00:00 20.5 13 Sudoeste 24 Sudoeste 0 -- -- 55
2018-05-09 20:00:00 23.3 6 Oeste 21 Oeste 0 -- -- 47
2018-05-09 19:00:00 24.8 10 Sudoeste 22 Sudoeste 0 -- -- 43
2018-05-09 18:00:00 24.5 7 Sudoeste 20 Sudoeste 0 -- -- 43
2018-05-09 17:00:00 25.2 10 Sudoeste 26 Sudoeste 0 -- -- 43
2018-05-09 16:00:00 24.5 12 Sudoeste 26 Sudoeste 0 -- -- 45
2018-05-09 15:00:00 23.4 10 Sudoeste 20 Sudeste 0 -- -- 49
2018-05-09 14:00:00 21.6 8 Oeste 18 Sudoeste 0 -- -- 57
2018-05-09 13:00:00 17.7 3 Norte 13 Sudoeste 0 -- -- 74
2018-05-09 12:00:00 15.3 4 Sur 12 Sur 0 -- -- 80
2018-05-09 11:00:00 14.1 6 Sur 12 Este 0 -- -- 86
2018-05-09 10:00:00 14.3 5 Sudeste 10 Sudeste 0 -- -- 85
2018-05-09 09:00:00 13.1 4 Sudeste 8 Sudeste 0 -- -- 90
2018-05-09 08:00:00 12.4 4 Norte 8 Norte 0 -- -- 92
2018-05-09 07:00:00 11.4 0 Calma 4 Nordeste 0 -- -- 96
2018-05-09 06:00:00 10.6 0 Calma 5 Sur 0 -- -- 95
2018-05-09 05:00:00 10.8 4 Sudeste 6 Sudeste 0 -- -- 92
2018-05-09 04:00:00 11.6 0 Calma 3 Este 0 -- -- 91
2018-05-09 03:00:00 12.4 0 Calma 10 Sudoeste 0 -- -- 90
2018-05-09 02:00:00 13.1 0 Calma 4 Norte 0 -- -- 88
2018-05-09 01:00:00 14.3 0 Calma 4 Noroeste 0 -- -- 85
2018-05-09 00:00:00 16.1 0 Calma 19 Sudoeste 0 -- -- 78
2018-05-08 23:00:00 17.5 6 Sudoeste 19 Sudoeste 0 -- -- 75
2018-05-08 22:00:00 19.8 7 Noroeste 15 Oeste 0 -- -- 69
2018-05-08 21:00:00 21.6 0 Calma 5 Sudeste 0 -- -- 64
2018-05-08 20:00:00 23.6 3 Sudeste 9 Sur 0 -- -- 54
2018-05-08 19:00:00 24.9 4 Sur 14 Sur 0 -- -- 46
2018-05-08 18:00:00 25.7 6 Sudoeste 13 Sudoeste 0 -- -- 43
2018-05-08 17:00:00 24.7 6 Sudoeste 19 Sudoeste 0 -- -- 50
2018-05-08 16:00:00 25.6 8 Sur 14 Sur 0 -- -- 47
2018-05-08 15:00:00 24.4 3 Nordeste 17 Sudoeste 0 -- -- 48
2018-05-08 14:00:00 24.1 5 Sudeste 15 Sur 0 -- -- 49
2018-05-08 13:00:00 22.8 4 Este 15 Sudeste 0 -- -- 55
2018-05-08 12:00:00 22.1 4 Sudeste 10 Sudeste 0 -- -- 53
2018-05-08 11:00:00 21.9 4 Norte 9 Nordeste 0 -- -- 55
2018-05-08 10:00:00 19.5 7 Norte 13 Norte 0 -- -- 66
2018-05-08 09:00:00 17.2 4 Noroeste 8 Noroeste 0 -- -- 79
2018-05-08 08:00:00 14 0 Calma 6 Oeste 0 -- -- 92
2018-05-08 07:00:00 14 0 Calma 7 Noroeste 0 -- -- 90
2018-05-08 06:00:00 14.9 5 Noroeste 10 Oeste 0 -- -- 89
2018-05-08 05:00:00 15.4 3 Norte 13 Norte 0.2 -- -- 87
2018-05-08 04:00:00 16.2 6 Norte 22 Norte 0 -- -- 77
2018-05-08 03:00:00 16.3 4 Noroeste 18 Norte 0 -- -- 83
2018-05-08 02:00:00 16.7 6 Noroeste 28 Nordeste 0 -- -- 76
2018-05-08 01:00:00 16.6 12 Noroeste 21 Noroeste 0 -- -- 82
2018-05-08 00:00:00 16.5 12 Noroeste 29 Norte 0 -- -- 83
2018-05-07 23:00:00 16.6 13 Norte 30 Norte 0 -- -- 83
2018-05-07 22:00:00 16.9 13 Norte 27 Norte 0.6 -- -- 83
2018-05-07 21:00:00 18.4 8 Norte 17 Nordeste 0 -- -- 70
2018-05-07 20:00:00 19.1 7 Norte 17 Norte 0 -- -- 74
2018-05-07 19:00:00 20 8 Norte 20 Este 0 -- -- 77
2018-05-07 18:00:00 19.9 10 Sudoeste 21 Sudoeste 1 -- -- 77
2018-05-07 17:00:00 22.7 4 Sudeste 15 Sudeste 0.2 -- -- 61
2018-05-07 16:00:00 24.4 8 Sudeste 18 Sur 0 -- -- 50
2018-05-07 15:00:00 25.6 10 Sudoeste 21 Sudoeste 0 -- -- 47
2018-05-07 14:00:00 24.8 7 Sudoeste 22 Sudoeste 0 -- -- 50
2018-05-07 13:00:00 23.4 8 Sudoeste 18 Sudoeste 0 -- -- 51
2018-05-07 12:00:00 23.7 5 Oeste 14 Sudoeste 0 -- -- 54
2018-05-07 11:00:00 21.1 4 Norte 7 Noroeste 0 -- -- 63
2018-05-07 10:00:00 18 3 Noroeste 8 Noroeste 0 -- -- 77
2018-05-07 09:00:00 15 0 Calma 4 Noroeste 0 -- -- 90
2018-05-07 08:00:00 14.3 0 Calma 3 Noroeste 0 -- -- 92
2018-05-07 07:00:00 14 0 Calma 4 Nordeste 0 -- -- 90
2018-05-07 06:00:00 14.5 2 Noroeste 8 Noroeste 0 -- -- 87
2018-05-07 05:00:00 14.4 4 Noroeste 7 Norte 0 -- -- 89
2018-05-07 04:00:00 14 3 Oeste 5 Oeste 0 -- -- 90
2018-05-07 03:00:00 14.6 0 Calma 4 Noroeste 0 -- -- 86
2018-05-07 02:00:00 15.8 0 Calma 5 Noroeste 0 -- -- 84
2018-05-07 01:00:00 16.2 0 Calma 4 Noroeste 0 -- -- 84
2018-05-07 00:00:00 16.6 0 Calma 4 Nordeste 0 -- -- 82
2018-05-06 23:00:00 17.3 0 Calma 5 Nordeste 0 -- -- 78
2018-05-06 22:00:00 18.1 0 Calma 5 Nordeste 0 -- -- 73
2018-05-06 21:00:00 20.7 0 Calma 14 Sudeste 0 -- -- 65
2018-05-06 20:00:00 22.9 6 Sudeste 13 Sudeste 0 -- -- 52
2018-05-06 19:00:00 23.6 7 Sur 15 Sur 0 -- -- 48
2018-05-06 18:00:00 22.5 5 Sudeste 17 Este 0 -- -- 52
2018-05-06 17:00:00 22.6 5 Sudeste 17 Sudeste 0 -- -- 53
2018-05-06 16:00:00 24.3 8 Sudeste 22 Sur 0 -- -- 48
2018-05-06 15:00:00 24.5 8 Sur 22 Sur 0 -- -- 48
2018-05-06 14:00:00 23.8 8 Sudeste 18 Sudeste 0 -- -- 53
2018-05-06 13:00:00 22.5 9 Sur 23 Sur 0 -- -- 53
2018-05-06 12:00:00 22.5 9 Sur 15 Sur 0 -- -- 50
2018-05-06 11:00:00 21.1 6 Sudoeste 10 Sudoeste 0 -- -- 54
2018-05-06 10:00:00 19.6 5 Noroeste 10 Noroeste 0 -- -- 61
2018-05-06 09:00:00 15.8 5 Noroeste 10 Oeste 0 -- -- 75
2018-05-06 08:00:00 10.9 7 Noroeste 10 Oeste 0 -- -- 90
2018-05-06 07:00:00 10 5 Noroeste 9 Noroeste 0 -- -- 90
2018-05-06 06:00:00 10.3 5 Noroeste 12 Noroeste 0 -- -- 89
2018-05-06 05:00:00 10.8 6 Noroeste 10 Noroeste 0 -- -- 89
2018-05-06 04:00:00 11.3 7 Noroeste 10 Noroeste 0 -- -- 90
2018-05-06 03:00:00 11.8 5 Noroeste 9 Norte 0 -- -- 92
2018-05-06 02:00:00 12.4 2 Noroeste 6 Noroeste 0 -- -- 88
2018-05-06 01:00:00 14.2 0 Calma 6 Noroeste 0 -- -- 88
2018-05-06 00:00:00 14.7 2 Noroeste 11 Este 0 -- -- 86
2018-05-05 23:00:00 15.4 0 Calma 3 Norte 0 -- -- 83
2018-05-05 22:00:00 16.2 0 Calma 2 Nordeste 0 -- -- 79
2018-05-05 21:00:00 17.5 0 Calma 5 Este 0 -- -- 74
2018-05-05 20:00:00 18.6 0 Calma 6 Sudeste 0 -- -- 65
2018-05-05 19:00:00 18.9 0 Calma 8 Sudeste 0 -- -- 61
2018-05-05 18:00:00 18.6 6 Sudeste 13 Sudeste 0 -- -- 62
2018-05-05 17:00:00 18.2 6 Sudeste 11 Sudeste 0 -- -- 65
2018-05-05 16:00:00 18.4 7 Sudeste 18 Este 0.2 -- -- 68
2018-05-05 15:00:00 19.2 10 Sudeste 23 Este 0 -- -- 57
2018-05-05 14:00:00 20.7 9 Sur 17 Sudeste 0 -- -- 54
2018-05-05 13:00:00 19.5 7 Oeste 15 Sur 0 -- -- 56
2018-05-05 12:00:00 17.4 5 Sudeste 13 Oeste 0 -- -- 58
2018-05-05 11:00:00 14.8 8 Sur 14 Sur 0 -- -- 64
2018-05-05 10:00:00 13.1 6 Este 12 Sudeste 0 -- -- 68
2018-05-05 09:00:00 10 0 Calma 4 Nordeste 0 -- -- 85
2018-05-05 08:00:00 6.9 0 Calma 0 Calma 0 -- -- 97
2018-05-05 07:00:00 6.1 0 Calma 2 Sur 0 -- -- 93
2018-05-05 06:00:00 6.4 0 Calma 4 Sudeste 0 -- -- 93
2018-05-05 05:00:00 6.9 0 Calma 4 Este 0 -- -- 91
2018-05-05 04:00:00 7.5 0 Calma 7 Noroeste 0 -- -- 91
2018-05-05 03:00:00 8.2 0 Calma 5 Este 0 -- -- 90
2018-05-05 02:00:00 8.9 2 Sur 5 Sudoeste 0 -- -- 87
2018-05-05 01:00:00 9.9 3 Nordeste 5 Sudoeste 0 -- -- 82
2018-05-05 00:00:00 11.3 0 Calma 7 Oeste 0 -- -- 77
2018-05-04 23:00:00 13.4 4 Sudoeste 8 Oeste 0 -- -- 68
2018-05-04 22:00:00 15.5 3 Noroeste 16 Oeste 0 -- -- 59
2018-05-04 21:00:00 17.6 4 Sudoeste 20 Sudoeste 0 -- -- 53
2018-05-04 20:00:00 19.6 7 Oeste 24 Oeste 0 -- -- 47
2018-05-04 19:00:00 22 10 Oeste 27 Oeste 0 -- -- 42
2018-05-04 18:00:00 22.5 10 Oeste 27 Oeste 0 -- -- 40
2018-05-04 17:00:00 23 11 Oeste 30 Sudoeste -- -- -- 39
2018-05-04 16:00:00 23.3 11 Sudoeste 27 Sudoeste 0 -- -- 40
2018-05-04 15:00:00 23.3 10 Sudoeste 30 Sudoeste 0 -- -- 39
2018-05-04 14:00:00 21.6 13 Sudoeste 26 Sudoeste 0 -- -- 42
2018-05-04 13:00:00 20.6 11 Oeste 24 Oeste 0 -- -- 45
2018-05-04 12:00:00 18.5 8 Sudoeste 22 Sudoeste 0 -- -- 50
2018-05-04 11:00:00 16.4 6 Sur 17 Sudoeste 0 -- -- 55
2018-05-04 10:00:00 13.6 5 Sudeste 10 Sur 0 -- -- 63
2018-05-04 09:00:00 9.3 2 Sudeste 6 Este 0 -- -- 75
2018-05-04 08:00:00 4.8 2 Sudeste 5 Sur 0 -- -- 95
2018-05-04 07:00:00 4 0 Calma 5 Norte 0 -- -- 91
2018-05-04 06:00:00 4.6 0 Calma 6 Nordeste 0 -- -- 89
2018-05-04 05:00:00 5.3 0 Calma 6 Nordeste 0 -- -- 85
2018-05-04 04:00:00 6.9 2 Oeste 14 Sudoeste 0 -- -- 79
2018-05-04 03:00:00 7.8 7 Oeste 17 Sudoeste 0 -- -- 73
2018-05-04 02:00:00 7.5 2 Nordeste 8 Norte 0 -- -- 79
2018-05-04 01:00:00 9 0 Calma 5 Este 0 -- -- 73
2018-05-04 00:00:00 10.9 3 Este 6 Este 0 -- -- 67
2018-05-03 23:00:00 13.3 0 Calma 17 Noroeste 0 -- -- 53
2018-05-03 22:00:00 15.9 12 Noroeste 22 Norte 0 -- -- 41
2018-05-03 21:00:00 17.8 13 Norte 28 Noroeste 0 -- -- 34
2018-05-03 20:00:00 19.9 12 Norte 22 Norte 0 -- -- 33
2018-05-03 19:00:00 22 10 Nordeste 28 Noroeste 0 -- -- 31
2018-05-03 18:00:00 22.7 15 Noroeste 34 Noroeste 0 -- -- 30
2018-05-03 17:00:00 22.9 15 Noroeste 30 Noroeste 0 -- -- 30
2018-05-03 16:00:00 23 18 Norte 31 Norte 0 -- -- 31
2018-05-03 15:00:00 22.9 18 Norte 35 Norte 0 -- -- 31
2018-05-03 14:00:00 22.1 10 Oeste 27 Oeste 0 -- -- 35
2018-05-03 13:00:00 20.4 12 Oeste 24 Sudoeste 0 -- -- 42
2018-05-03 12:00:00 16.7 3 Norte 8 Norte 0 -- -- 58
2018-05-03 11:00:00 14.7 3 Este 9 Sudeste 0 -- -- 64
2018-05-03 10:00:00 13.6 3 Sudeste 9 Este 0 -- -- 73
2018-05-03 09:00:00 12.5 2 Este 5 Noroeste 0 -- -- 77
2018-05-03 08:00:00 6.3 3 Noroeste 5 Norte 0 -- -- 95
2018-05-03 07:00:00 5.8 0 Calma 5 Noroeste 0 -- -- 91
2018-05-03 06:00:00 6.4 2 Oeste 6 Nordeste 0 -- -- 90
2018-05-03 05:00:00 7.1 0 Calma 6 Noroeste 0 -- -- 87
2018-05-03 04:00:00 8.4 2 Noroeste 6 Noroeste 0 -- -- 83
2018-05-03 03:00:00 9.3 0 Calma 4 Sudoeste 0 -- -- 82
2018-05-03 02:00:00 10 0 Calma 4 Norte 0 -- -- 78
2018-05-03 01:00:00 11.3 0 Calma 5 Oeste 0 -- -- 73
2018-05-03 00:00:00 12.5 4 Oeste 12 Sudoeste 0 -- -- 62
2018-05-02 23:00:00 12.8 3 Este 20 Oeste 0 -- -- 64
2018-05-02 22:00:00 14.9 6 Oeste 24 Oeste 0 -- -- 53
2018-05-02 21:00:00 16.6 9 Oeste 31 Oeste 0 -- -- 47
2018-05-02 20:00:00 18.5 10 Oeste 33 Sudoeste 0 -- -- 41
2018-05-02 19:00:00 19.3 12 Oeste 39 Oeste 0 -- -- 38
2018-05-02 18:00:00 19.7 14 Sudoeste 35 Sudoeste 0 -- -- 40
2018-05-02 17:00:00 19.6 16 Oeste 35 Oeste 0 -- -- 36
2018-05-02 16:00:00 20.2 15 Oeste 43 Sudoeste 0 -- -- 32
2018-05-02 15:00:00 19.9 18 Oeste 41 Sudoeste 0 -- -- 32
2018-05-02 14:00:00 19.5 19 Oeste 39 Sudoeste 0 -- -- 35
2018-05-02 13:00:00 19.1 13 Oeste 31 Sudoeste 0 -- -- 38
2018-05-02 12:00:00 16.8 11 Oeste 25 Oeste 0 -- -- 45
2018-05-02 11:00:00 14.5 3 Sudoeste 9 Noroeste 0 -- -- 51
2018-05-02 10:00:00 12.5 3 Norte 10 Noroeste 0 -- -- 57
2018-05-02 09:00:00 8.5 3 Noroeste 8 Noroeste 0 -- -- 75
2018-05-02 08:00:00 3.3 4 Noroeste 8 Noroeste 0 -- -- 95
2018-05-02 07:00:00 2.3 0 Calma 6 Noroeste 0 -- -- 93
2018-05-02 06:00:00 2.9 0 Calma 5 Oeste 0 -- -- 92
2018-05-02 05:00:00 3.7 3 Noroeste 6 Noroeste 0 -- -- 92
2018-05-02 04:00:00 4 2 Noroeste 7 Noroeste 0 -- -- 92
2018-05-02 03:00:00 4.2 3 Noroeste 6 Noroeste 0 -- -- 93
2018-05-02 02:00:00 4.8 0 Calma 8 Norte 0 -- -- 91
2018-05-02 01:00:00 5.5 2 Sudoeste 5 Oeste 0 -- -- 89
2018-05-02 00:00:00 6 0 Calma 4 Sudoeste 0 -- -- 87
2018-05-01 23:00:00 7.2 0 Calma 4 Este 0 -- -- 83
2018-05-01 22:00:00 9.2 0 Calma 5 Noroeste 0 -- -- 76
2018-05-01 21:00:00 11.8 0 Calma 10 Sur 0 -- -- 65
2018-05-01 20:00:00 13.6 6 Sur 18 Oeste 0 -- -- 53
2018-05-01 19:00:00 13.3 5 Sudeste 19 Nordeste 0 -- -- 54
2018-05-01 18:00:00 14.2 7 Este 35 Este 0 -- -- 50
2018-05-01 17:00:00 16.8 11 Sudeste 22 Sudeste 0 -- -- 41
2018-05-01 16:00:00 14.6 10 Oeste 23 Oeste 0 -- -- 47
2018-05-01 15:00:00 16.3 9 Sudoeste 26 Sur 0 -- -- 42
2018-05-01 14:00:00 15.7 8 Sur 21 Sudoeste 0 -- -- 52
2018-05-01 13:00:00 14.3 6 Sur 18 Sur 0 -- -- 55
2018-05-01 12:00:00 13 8 Sur 18 Sudoeste 0 -- -- 61
2018-05-01 11:00:00 11.7 6 Sudeste 15 Sudeste 0 -- -- 64
2018-05-01 10:00:00 9.6 5 Este 13 Este 0 -- -- 72
2018-05-01 09:00:00 7.2 2 Este 5 Sudeste 0 -- -- 85
2018-05-01 08:00:00 2.3 0 Calma 4 Noroeste 0 -- -- 98
2018-05-01 07:00:00 1.7 0 Calma 4 Sudoeste 0 -- -- 95
2018-05-01 06:00:00 2.4 0 Calma 3 Norte 0 -- -- 94
2018-05-01 05:00:00 3 0 Calma 3 Sudoeste 0 -- -- 95
2018-05-01 04:00:00 3.1 0 Calma 4 Oeste 0 -- -- 93
2018-05-01 03:00:00 3.7 0 Calma 4 Noroeste 0 -- -- 90
2018-05-01 02:00:00 4.7 0 Calma 5 Norte 0 -- -- 89
2018-05-01 01:00:00 5.6 2 Oeste 4 Sudoeste 0 -- -- 84
2018-05-01 00:00:00 7.3 2 Noroeste 8 Oeste 0 -- -- 78
2018-04-30 23:00:00 9.3 0 Calma 12 Norte 0 -- -- 70
2018-04-30 22:00:00 10.7 9 Noroeste 20 Oeste 0 -- -- 59
2018-04-30 21:00:00 12.2 4 Sudoeste 13 Oeste 0 -- -- 58
2018-04-30 20:00:00 15.1 5 Oeste 17 Oeste 0 -- -- 40
2018-04-30 19:00:00 17.2 8 Oeste 20 Oeste 0 -- -- 36
2018-04-30 18:00:00 16.9 5 Sudoeste 21 Sudoeste 0 -- -- 40
2018-04-30 17:00:00 16.4 6 Sudoeste 21 Sudoeste 0 -- -- 42
2018-04-30 16:00:00 16.5 9 Sudoeste 24 Sur 0 -- -- 40
2018-04-30 15:00:00 15.3 11 Sur 21 Sur 0 -- -- 47
2018-04-30 14:00:00 13.9 13 Sur 27 Sur 0 -- -- 49
2018-04-30 13:00:00 13.7 6 Sudoeste 20 Sudoeste 0 -- -- 56
2018-04-30 12:00:00 12.6 6 Sur 16 Sudeste 0 -- -- 65
2018-04-30 11:00:00 12 7 Sudeste 16 Sudoeste 0 -- -- 66
2018-04-30 10:00:00 10.4 7 Oeste 14 Sudoeste 0 -- -- 72
2018-04-30 09:00:00 6.3 0 Calma 4 Nordeste 0 -- -- 100
2018-04-30 08:00:00 4.1 0 Calma 4 Este 0 -- -- 100
2018-04-30 07:00:00 3.7 0 Calma 4 Este 0 -- -- 98
2018-04-30 06:00:00 4.4 0 Calma 4 Noroeste 0 -- -- 98
2018-04-30 05:00:00 4.4 0 Calma 5 Oeste 0 -- -- 97
2018-04-30 04:00:00 5.2 2 Este 7 Noroeste 0 -- -- 97
2018-04-30 03:00:00 5.8 0 Calma 5 Sudoeste 0 -- -- 96
2018-04-30 02:00:00 6.8 0 Calma 4 Oeste 0 -- -- 95
2018-04-30 01:00:00 7.8 2 Sudoeste 7 Oeste 1.2 -- -- 96
2018-04-30 00:00:00 8 0 Calma 6 Noroeste 0 -- -- 93
2018-04-29 23:00:00 8.8 0 Calma 5 Noroeste 0 -- -- 86
2018-04-29 22:00:00 10.5 0 Calma 14 Oeste 0 -- -- 81
2018-04-29 21:00:00 11.4 6 Sudoeste 14 Sudoeste 0 -- -- 72
2018-04-29 20:00:00 12.4 5 Noroeste 24 Oeste 0 -- -- 65
2018-04-29 19:00:00 12.7 12 Noroeste 22 Oeste 0 -- -- 68
2018-04-29 18:00:00 11.9 11 Oeste 26 Oeste 0.2 -- -- 74
2018-04-29 17:00:00 12.2 10 Oeste 32 Oeste 0.2 -- -- 76
2018-04-29 16:00:00 13 6 Oeste 36 Noroeste 0 -- -- 67
2018-04-29 15:00:00 12.7 14 Noroeste 33 Noroeste 0.4 -- -- 69
2018-04-29 14:00:00 10.8 6 Sudeste 19 Sudeste 0.2 -- -- 80
2018-04-29 13:00:00 12.1 9 Sudeste 23 Sudeste 0.8 -- -- 74
2018-04-29 12:00:00 15.3 10 Nordeste 18 Nordeste 0 -- -- 65
2018-04-29 11:00:00 13.6 5 Norte 10 Noroeste 0 -- -- 76
2018-04-29 10:00:00 12.3 4 Oeste 20 Nordeste 0 -- -- 87
2018-04-29 09:00:00 11.7 6 Nordeste 24 Nordeste 0.2 -- -- 90
2018-04-29 08:00:00 11.4 6 Noroeste 13 Noroeste 0 -- -- 93
2018-04-29 07:00:00 11.4 3 Noroeste 10 Nordeste 0.2 -- -- 93
2018-04-29 06:00:00 11.6 4 Este 14 Noroeste 2 -- -- 94
2018-04-29 05:00:00 11.9 6 Norte 29 Oeste 8.8 -- -- 94
2018-04-29 04:00:00 14.4 8 Sudeste 19 Sudeste 0.4 -- -- 93
2018-04-29 03:00:00 14.5 6 Sudeste 21 Sur 2.4 -- -- 95
2018-04-29 02:00:00 14.7 3 Sudeste 12 Sur 0.8 -- -- 92
2018-04-29 01:00:00 15.2 7 Sur 15 Sur 1.2 -- -- 87
2018-04-29 00:00:00 15.5 3 Sudeste 21 Sudeste 0 -- -- 83
2018-04-28 23:00:00 15.9 10 Sudeste 20 Sudeste 0 -- -- 78
2018-04-28 22:00:00 16.7 9 Sudeste 25 Este 0 -- -- 73
2018-04-28 21:00:00 17.6 7 Sudeste 23 Sudeste 0 -- -- 69
2018-04-28 20:00:00 19.3 11 Sudeste 40 Este 0 -- -- 63
2018-04-28 19:00:00 20.3 10 Este 34 Sudeste 0 -- -- 61
2018-04-28 18:00:00 21.9 13 Sudeste 28 Sudeste 0 -- -- 54
2018-04-28 17:00:00 23 12 Sudeste 27 Este 0 -- -- 48
2018-04-28 16:00:00 22.1 10 Sudeste 26 Sudeste 0 -- -- 50
2018-04-28 15:00:00 21.3 9 Sur 22 Sur 0 -- -- 56
2018-04-28 14:00:00 20.2 9 Sur 19 Sur 0 -- -- 65
2018-04-28 13:00:00 19.1 5 Este 12 Este 0 -- -- 72
2018-04-28 12:00:00 16.4 5 Este 11 Este 0 -- -- 81
2018-04-28 11:00:00 14.9 0 Calma 6 Sur 0 -- -- 88
2018-04-28 10:00:00 13.8 2 Sur 9 Sudeste 0 -- -- 91
2018-04-28 09:00:00 13.7 5 Sur 16 Sur 0 -- -- 90
2018-04-28 08:00:00 14.7 4 Sudeste 10 Sudeste 0 -- -- 95
2018-04-28 07:00:00 14.4 3 Sudeste 10 Este 0 -- -- 95
2018-04-28 06:00:00 14.2 0 Calma 9 Sudoeste 0 -- -- 95
2018-04-28 05:00:00 14.6 6 Sur 13 Sur 0 -- -- 92
2018-04-28 04:00:00 14.1 0 Calma 4 Noroeste 0 -- -- 97
2018-04-28 03:00:00 13.8 0 Calma 4 Noroeste 0 -- -- 97
2018-04-28 02:00:00 13.9 4 Oeste 6 Oeste 0 -- -- 97
2018-04-28 01:00:00 13.9 0 Calma 5 Sudeste 0 -- -- 95
2018-04-28 00:00:00 13.9 2 Sudeste 6 Noroeste 0 -- -- 92
2018-04-27 23:00:00 15.3 2 Sudeste 11 Norte 0 -- -- 89
2018-04-27 22:00:00 16.8 6 Norte 28 Sudoeste 1.6 -- -- 78
2018-04-27 21:00:00 18.1 9 Oeste 26 Sudoeste 1.6 -- -- 81
2018-04-27 20:00:00 21.6 7 Sudoeste 24 Sur 0 -- -- 59
2018-04-27 19:00:00 24.5 6 Sudeste 16 Sur 0 -- -- 48
2018-04-27 18:00:00 27 7 Oeste 17 Sudeste 0 -- -- 38
2018-04-27 17:00:00 26.9 6 Sur 17 Sudoeste 0 -- -- 41
2018-04-27 16:00:00 26.5 8 Sudoeste 19 Oeste 0 -- -- 41
2018-04-27 15:00:00 25.2 9 Sur 20 Oeste 0 -- -- 49
2018-04-27 14:00:00 24.2 5 Noroeste 14 Sudoeste 0 -- -- 50
2018-04-27 13:00:00 22.1 6 Sudeste 15 Sur 0 -- -- 54
2018-04-27 12:00:00 21.3 8 Sur 13 Sudoeste 0 -- -- 58
2018-04-27 11:00:00 19.8 5 Este 10 Sudeste 0 -- -- 66
2018-04-27 10:00:00 17.6 3 Este 8 Este 0 -- -- 70
2018-04-27 09:00:00 14.4 2 Oeste 8 Oeste 0 -- -- 82
2018-04-27 08:00:00 10.2 0 Calma 9 Noroeste 0 -- -- 95
2018-04-27 07:00:00 8.9 0 Calma 4 Noroeste 0 -- -- 94
2018-04-27 06:00:00 9.1 0 Calma 5 Noroeste 0 -- -- 93
2018-04-27 05:00:00 9.3 3 Noroeste 5 Oeste 0 -- -- 93
2018-04-27 04:00:00 9.9 0 Calma 5 Norte 0 -- -- 90
2018-04-27 03:00:00 10.7 0 Calma 6 Noroeste 0 -- -- 88
2018-04-27 02:00:00 10.9 0 Calma 4 Noroeste 0 -- -- 87
2018-04-27 01:00:00 11.8 0 Calma 5 Noroeste 0 -- -- 84
2018-04-27 00:00:00 12.7 3 Noroeste 4 Noroeste 0 -- -- 81
2018-04-26 23:00:00 14 2 Noroeste 5 Oeste 0 -- -- 76
2018-04-26 22:00:00 16.2 0 Calma 3 Nordeste 0 -- -- 68
2018-04-26 21:00:00 19.6 0 Calma 10 Sur 0 -- -- 60
2018-04-26 20:00:00 22.1 5 Sudoeste 14 Sur 0 -- -- 49
2018-04-26 19:00:00 24 7 Oeste 17 Sudoeste 0 -- -- 46
2018-04-26 18:00:00 24.5 9 Sudoeste 21 Sudoeste 0 -- -- 44
2018-04-26 17:00:00 24.4 9 Oeste 20 Sudoeste 0 -- -- 44
2018-04-26 16:00:00 23.3 11 Sudoeste 23 Sudoeste 0 -- -- 45
2018-04-26 15:00:00 22.9 9 Sudoeste 24 Sudoeste 0 -- -- 51
2018-04-26 14:00:00 21.6 6 Sudoeste 19 Sur 0 -- -- 53
2018-04-26 13:00:00 20 6 Sudoeste 14 Sur 0 -- -- 58
2018-04-26 12:00:00 17.7 8 Sur 18 Sudoeste 0 -- -- 65
2018-04-26 11:00:00 16.1 6 Sur 17 Sur 0 -- -- 70
2018-04-26 10:00:00 14.4 5 Este 13 Sur 0 -- -- 74
2018-04-26 09:00:00 12.3 5 Este 9 Sudeste 0 -- -- 81
2018-04-26 08:00:00 9.7 2 Sudeste 5 Sur 0 -- -- 93
2018-04-26 07:00:00 9.7 0 Calma 3 Sur 0 -- -- 90
2018-04-26 06:00:00 10.5 0 Calma 10 Noroeste 0 -- -- 89
2018-04-26 05:00:00 11.4 2 Sur 7 Oeste 0 -- -- 87
2018-04-26 04:00:00 12.1 2 Este 4 Sudeste 0 -- -- 85
2018-04-26 03:00:00 13.8 0 Calma 7 Oeste 0 -- -- 78
2018-04-26 02:00:00 15.3 0 Calma 4 Sudeste 0 -- -- 79
2018-04-26 01:00:00 16.4 2 Nordeste 6 Sudoeste 0 -- -- 74
2018-04-26 00:00:00 17.6 3 Sudoeste 8 Sudoeste 0 -- -- 64
2018-04-25 23:00:00 18.2 0 Calma 6 Sudeste 0 -- -- 55
2018-04-25 22:00:00 19.8 0 Calma 8 Sudeste 0 -- -- 48
2018-04-25 21:00:00 22.2 6 Sudeste 30 Sudeste 0 -- -- 39
2018-04-25 20:00:00 26.1 3 Oeste 11 Oeste 0 -- -- 44
2018-04-25 19:00:00 27.5 6 Sudoeste 20 Oeste 0 -- -- 39
2018-04-25 18:00:00 28.6 6 Oeste 22 Sudoeste 0 -- -- 39
2018-04-25 17:00:00 28.6 6 Oeste 21 Sudoeste 0 -- -- 37
2018-04-25 16:00:00 28 8 Sur 27 Oeste 0 -- -- 40
2018-04-25 15:00:00 28.1 7 Oeste 21 Sudoeste 0 -- -- 40
2018-04-25 14:00:00 28 7 Sudoeste 20 Sur 0 -- -- 41
2018-04-25 13:00:00 27.4 4 Sudoeste 10 Oeste 0 -- -- 35
2018-04-25 12:00:00 25.6 4 Norte 19 Noroeste 0 -- -- 42
2018-04-25 11:00:00 23.1 9 Norte 20 Noroeste 0 -- -- 49
2018-04-25 10:00:00 19.8 3 Noroeste 10 Noroeste 0 -- -- 64
2018-04-25 09:00:00 15.1 5 Noroeste 10 Noroeste 0 -- -- 77
2018-04-25 08:00:00 11.6 5 Noroeste 9 Norte 0 -- -- 85
2018-04-25 07:00:00 10.9 2 Noroeste 12 Noroeste 0 -- -- 86
2018-04-25 06:00:00 10.7 8 Noroeste 12 Oeste 0 -- -- 89
2018-04-25 05:00:00 10.6 0 Calma 9 Noroeste 0 -- -- 88
2018-04-25 04:00:00 10.3 3 Noroeste 6 Noroeste 0 -- -- 91
2018-04-25 03:00:00 10.8 0 Calma 3 Oeste 0 -- -- 89
2018-04-25 02:00:00 11.6 0 Calma 2 Noroeste 0 -- -- 86
2018-04-25 01:00:00 12.7 0 Calma 2 Noroeste 0 -- -- 84
2018-04-25 00:00:00 14 0 Calma 4 Noroeste 0 -- -- 80
2018-04-24 23:00:00 15.6 0 Calma 6 Noroeste 0 -- -- 76
2018-04-24 22:00:00 17.3 3 Noroeste 6 Este 0 -- -- 71
2018-04-24 21:00:00 20.9 0 Calma 6 Sur 0 -- -- 58
2018-04-24 20:00:00 24.2 6 Sur 14 Sur 0 -- -- 43
2018-04-24 19:00:00 26.2 8 Sur 14 Sudeste 0 -- -- 36
2018-04-24 18:00:00 26.9 6 Sudeste 15 Sur 0 -- -- 36
2018-04-24 17:00:00 26.8 5 Sur 14 Sur 0 -- -- 35
2018-04-24 16:00:00 26.2 6 Sur 21 Sur 0 -- -- 36
2018-04-24 15:00:00 25.5 9 Sur 19 Sudeste 0 -- -- 37
2018-04-24 14:00:00 24.6 10 Sur 20 Sur 0 -- -- 44
2018-04-24 13:00:00 23.4 6 Sudeste 14 Sur 0 -- -- 51
2018-04-24 12:00:00 22.3 4 Sudeste 10 Sur 0 -- -- 52
2018-04-24 11:00:00 20.6 4 Este 12 Este 0 -- -- 54
2018-04-24 10:00:00 18.9 4 Nordeste 8 Norte 0 -- -- 60
2018-04-24 09:00:00 15.2 3 Oeste 15 Noroeste 0 -- -- 71
2018-04-24 08:00:00 10.6 3 Noroeste 9 Noroeste 0 -- -- 90
2018-04-24 07:00:00 9.6 3 Noroeste 7 Oeste 0 -- -- 92
2018-04-24 06:00:00 10.1 0 Calma 6 Oeste 0 -- -- 89
2018-04-24 05:00:00 11.2 2 Noroeste 8 Oeste 0 -- -- 86
2018-04-24 04:00:00 12.6 3 Noroeste 12 Noroeste 0 -- -- 84
2018-04-24 03:00:00 13.1 5 Noroeste 15 Noroeste 0 -- -- 85
2018-04-24 02:00:00 11.9 0 Calma 8 Noroeste 0 -- -- 86
2018-04-24 01:00:00 12.7 4 Noroeste 9 Oeste 0 -- -- 84
2018-04-24 00:00:00 13.3 6 Oeste 10 Noroeste 0 -- -- 81